createdAt,value
2019-03-27T00:01:24.326Z,10.20
2019-03-27T00:06:25.801Z,9.60
2019-03-27T00:11:27.241Z,9.90
2019-03-27T00:16:28.616Z,9.10
2019-03-27T00:21:29.994Z,9.90
2019-03-27T00:26:31.362Z,10.43
2019-03-27T00:31:32.818Z,9.83
2019-03-27T00:36:34.281Z,9.23
2019-03-27T00:41:35.647Z,8.80
2019-03-27T00:46:36.988Z,9.73
2019-03-27T00:51:38.379Z,8.87
2019-03-27T00:56:39.815Z,9.70
2019-03-27T01:01:41.195Z,10.00
2019-03-27T01:06:42.563Z,8.53
2019-03-27T01:11:43.919Z,9.60
2019-03-27T01:16:46.307Z,9.63
2019-03-27T01:21:47.687Z,9.27
2019-03-27T01:26:49.052Z,8.77
2019-03-27T01:31:50.603Z,9.87
2019-03-27T01:36:51.974Z,9.47
2019-03-27T01:41:53.347Z,9.53
2019-03-27T01:46:54.687Z,10.20
2019-03-27T01:51:56.079Z,9.80
2019-03-27T01:56:57.514Z,10.97
2019-03-27T02:01:59.608Z,9.90
2019-03-27T02:07:01.017Z,9.57
2019-03-27T02:12:02.555Z,9.77
2019-03-27T02:17:03.987Z,10.37
2019-03-27T02:22:09.935Z,10.23
2019-03-27T02:27:11.397Z,10.17
2019-03-27T02:32:12.908Z,11.63
2019-03-27T02:37:14.298Z,10.70
2019-03-27T02:42:15.741Z,10.90
2019-03-27T02:47:17.127Z,10.83
2019-03-27T02:52:18.556Z,10.57
2019-03-27T02:57:19.960Z,10.83
2019-03-27T03:02:21.389Z,11.30
2019-03-27T03:07:22.773Z,10.47
2019-03-27T03:12:24.149Z,11.80
2019-03-27T03:17:25.605Z,11.97
2019-03-27T03:22:27.055Z,11.00
2019-03-27T03:27:28.414Z,12.30
2019-03-27T03:32:29.922Z,11.33
2019-03-27T03:37:31.271Z,11.47
2019-03-27T03:42:32.641Z,12.40
2019-03-27T03:47:33.999Z,12.70
2019-03-27T03:52:35.443Z,11.73
2019-03-27T03:57:37.016Z,11.70
2019-03-27T04:02:39.302Z,11.63
2019-03-27T04:07:40.684Z,12.03
2019-03-27T04:12:42.056Z,11.33
2019-03-27T04:17:43.389Z,11.00
2019-03-27T04:22:44.742Z,12.50
2019-03-27T04:27:48.587Z,13.10
2019-03-27T04:32:50.261Z,11.83
2019-03-27T04:37:51.638Z,11.50
2019-03-27T04:42:52.966Z,12.20
2019-03-27T04:47:54.353Z,11.90
2019-03-27T04:52:55.799Z,11.97
2019-03-27T04:57:57.382Z,11.50
2019-03-27T05:02:58.734Z,11.73
2019-03-27T05:08:00.156Z,11.67
2019-03-27T05:13:01.566Z,10.97
2019-03-27T05:18:03.075Z,10.90
2019-03-27T05:23:04.432Z,13.13
2019-03-27T05:28:05.887Z,10.47
2019-03-27T05:33:07.215Z,11.37
2019-03-27T05:38:08.616Z,11.20
2019-03-27T05:43:09.955Z,11.53
2019-03-27T05:48:11.346Z,11.80
2019-03-27T05:53:12.770Z,11.57
2019-03-27T05:58:14.175Z,10.90
2019-03-27T06:03:15.504Z,10.93
2019-03-27T06:08:16.908Z,11.47
2019-03-27T06:13:18.268Z,11.00
2019-03-27T06:18:19.631Z,11.33
2019-03-27T06:23:20.949Z,10.67
2019-03-27T06:28:22.355Z,10.27
2019-03-27T06:33:23.720Z,10.63
2019-03-27T06:38:25.075Z,10.73
2019-03-27T06:43:26.456Z,9.70
2019-03-27T06:48:27.907Z,8.87
2019-03-27T06:53:29.251Z,8.93
2019-03-27T06:58:31.359Z,8.43
2019-03-27T07:03:33.398Z,8.60
2019-03-27T07:08:37.142Z,9.63
2019-03-27T07:13:38.600Z,7.77
2019-03-27T07:18:40.686Z,7.77
2019-03-27T07:23:42.126Z,9.13
2019-03-27T07:28:43.539Z,9.47
2019-03-27T07:33:44.875Z,8.53
2019-03-27T07:38:46.273Z,7.13
2019-03-27T07:43:47.723Z,8.40
2019-03-27T07:48:54.207Z,8.13
2019-03-27T07:53:52.417Z,6.70
2019-03-27T07:58:53.848Z,6.97
2019-03-27T08:03:55.269Z,8.07
2019-03-27T08:08:56.704Z,8.37
2019-03-27T08:13:58.100Z,7.20
2019-03-27T08:19:07.403Z,6.70
2019-03-27T08:24:02.867Z,6.73
2019-03-27T08:29:04.414Z,7.90
2019-03-27T08:34:05.879Z,8.00
2019-03-27T08:39:07.423Z,6.53
2019-03-27T08:44:08.818Z,6.97
2019-03-27T08:49:21.266Z,7.43
2019-03-27T08:54:13.494Z,7.90
2019-03-27T08:59:14.837Z,5.80
2019-03-27T09:04:16.239Z,6.10
2019-03-27T09:09:17.851Z,7.00
2019-03-27T09:14:19.252Z,6.53
2019-03-27T09:19:34.612Z,3.43
2019-03-27T09:24:23.934Z,3.47
2019-03-27T09:29:25.355Z,4.23
2019-03-27T09:34:26.834Z,4.00
2019-03-27T09:39:28.207Z,4.30
2019-03-27T09:44:29.610Z,3.80
2019-03-27T09:49:31.037Z,4.67
2019-03-27T09:54:32.387Z,4.03
2019-03-27T09:59:33.721Z,3.43
2019-03-27T10:04:35.094Z,2.80
2019-03-27T10:09:36.481Z,3.87
2019-03-27T10:14:37.812Z,4.37
2019-03-27T10:19:39.247Z,4.03
2019-03-27T10:24:40.563Z,3.83
2019-03-27T10:29:41.947Z,3.80
2019-03-27T10:34:43.323Z,3.33
2019-03-27T10:39:44.658Z,2.93
2019-03-27T10:44:46.083Z,2.90
2019-03-27T10:49:47.494Z,2.83
2019-03-27T10:54:48.940Z,3.20
2019-03-27T10:59:50.264Z,3.57
2019-03-27T11:04:51.712Z,3.73
2019-03-27T11:09:53.067Z,4.80
2019-03-27T11:14:54.428Z,4.10
2019-03-27T11:19:55.812Z,4.20
2019-03-27T11:24:57.155Z,4.53
2019-03-27T11:29:58.505Z,4.80
2019-03-27T11:35:00.356Z,4.47
2019-03-27T11:40:03.650Z,4.00
2019-03-27T11:45:06.476Z,4.17
2019-03-27T11:50:09.130Z,4.80
2019-03-27T11:55:10.778Z,5.43
2019-03-27T12:00:12.823Z,5.30
2019-03-27T12:05:14.330Z,5.10
2019-03-27T12:10:15.863Z,5.20
2019-03-27T12:15:36.923Z,4.97
2019-03-27T12:20:38.807Z,4.33
2019-03-27T12:25:40.587Z,4.97
2019-03-27T12:30:42.297Z,4.90
2019-03-27T12:35:44.245Z,3.77
2019-03-27T12:40:45.984Z,4.40
2019-03-27T12:45:47.587Z,4.80
2019-03-27T12:50:49.336Z,4.77
2019-03-27T12:55:51.103Z,4.17
2019-03-27T13:00:53.334Z,3.23
2019-03-27T13:05:55.102Z,3.70
2019-03-27T13:10:56.880Z,3.10
2019-03-27T13:15:58.312Z,3.93
2019-03-27T13:20:59.783Z,2.60
2019-03-27T13:26:01.226Z,2.90
2019-03-27T13:31:02.574Z,3.50
2019-03-27T13:36:05.432Z,2.33
2019-03-27T13:41:06.862Z,2.90
2019-03-27T13:46:08.240Z,2.50
2019-03-27T13:51:09.605Z,1.73
2019-03-27T13:56:11.169Z,1.83
2019-03-27T14:01:13.066Z,1.83
2019-03-27T14:06:14.526Z,1.77
2019-03-27T14:11:16.040Z,1.70
2019-03-27T14:16:17.433Z,1.67
2019-03-27T14:21:18.819Z,2.00
2019-03-27T14:26:20.158Z,1.77
2019-03-27T14:31:21.535Z,2.00
2019-03-27T14:36:22.975Z,1.43
2019-03-27T14:41:24.456Z,1.97
2019-03-27T14:46:25.897Z,2.00
2019-03-27T14:51:27.427Z,2.17
2019-03-27T14:56:29.705Z,1.77
2019-03-27T15:01:31.177Z,2.00
2019-03-27T15:06:32.583Z,2.17
2019-03-27T15:11:33.985Z,2.17
2019-03-27T15:16:35.419Z,1.70
2019-03-27T15:21:36.830Z,1.93
2019-03-27T15:26:38.165Z,1.80
2019-03-27T15:31:39.539Z,1.87
2019-03-27T15:36:40.974Z,2.07
2019-03-27T15:41:42.326Z,2.17
2019-03-27T15:46:43.699Z,2.00
2019-03-27T15:51:45.157Z,2.37
2019-03-27T15:56:46.678Z,2.50
2019-03-27T16:01:48.234Z,2.63
2019-03-27T16:06:49.573Z,3.40
2019-03-27T16:11:50.962Z,3.97
2019-03-27T16:17:12.046Z,2.33
2019-03-27T16:21:55.624Z,2.50
2019-03-27T16:27:04.421Z,2.37
2019-03-27T16:32:00.707Z,1.97
2019-03-27T16:37:02.072Z,2.43
2019-03-27T16:42:03.545Z,2.20
2019-03-27T16:47:05.117Z,2.70
2019-03-27T16:52:06.456Z,2.40
2019-03-27T16:57:07.808Z,2.37
2019-03-27T17:02:09.133Z,2.23
2019-03-27T17:07:10.489Z,1.90
2019-03-27T17:12:11.912Z,2.40
2019-03-27T17:17:13.394Z,2.60
2019-03-27T17:22:19.773Z,2.80
2019-03-27T17:27:17.977Z,2.83
2019-03-27T17:32:19.418Z,3.33
2019-03-27T17:37:20.816Z,3.73
2019-03-27T17:42:22.123Z,3.30
2019-03-27T17:47:23.740Z,4.73
2019-03-27T17:52:25.094Z,4.47
2019-03-27T17:57:26.445Z,4.90
2019-03-27T18:02:27.866Z,4.00
2019-03-27T18:07:29.271Z,4.70
2019-03-27T18:12:30.620Z,4.40
2019-03-27T18:17:32.106Z,7.23
2019-03-27T18:22:33.486Z,5.37
2019-03-27T18:27:34.814Z,4.97
2019-03-27T18:32:36.238Z,4.60
2019-03-27T18:37:37.659Z,4.77
2019-03-27T18:42:39.124Z,4.93
2019-03-27T18:47:40.542Z,4.50
2019-03-27T18:52:42.061Z,6.60
2019-03-27T18:57:43.412Z,5.63
2019-03-27T19:02:44.782Z,4.77
2019-03-27T19:07:46.175Z,5.23
2019-03-27T19:12:47.515Z,5.10
2019-03-27T19:17:48.903Z,5.23
2019-03-27T19:22:50.242Z,4.97
2019-03-27T19:27:51.579Z,5.57
2019-03-27T19:32:53.100Z,5.07
2019-03-27T19:37:54.439Z,5.50
2019-03-27T19:42:55.861Z,5.17
2019-03-27T19:47:57.413Z,5.40
2019-03-27T19:52:58.764Z,5.07
2019-03-27T19:58:00.111Z,5.07
2019-03-27T20:03:01.560Z,4.97
2019-03-27T20:08:04.158Z,4.60
2019-03-27T20:13:05.520Z,4.57
2019-03-27T20:18:06.901Z,5.30
2019-03-27T20:23:14.787Z,5.37
2019-03-27T20:28:11.653Z,4.93
2019-03-27T20:33:13.044Z,5.03
2019-03-27T20:38:14.414Z,4.60
2019-03-27T20:43:15.784Z,5.10
2019-03-27T20:48:17.249Z,4.77
2019-03-27T20:53:18.686Z,4.77
2019-03-27T20:58:20.032Z,4.83
2019-03-27T21:03:21.431Z,4.93
2019-03-27T21:08:22.790Z,5.53
2019-03-27T21:13:24.156Z,5.23
2019-03-27T21:18:25.518Z,5.27
2019-03-27T21:23:26.903Z,6.60
2019-03-27T21:28:28.225Z,6.23
2019-03-27T21:33:29.630Z,5.77
2019-03-27T21:38:30.996Z,6.13
2019-03-27T21:43:32.440Z,5.83
2019-03-27T21:48:33.813Z,5.60
2019-03-27T21:53:35.181Z,5.23
2019-03-27T21:58:36.531Z,5.23
2019-03-27T22:03:37.878Z,5.00
2019-03-27T22:08:39.307Z,5.10
2019-03-27T22:13:40.710Z,4.53
2019-03-27T22:18:42.282Z,4.30
2019-03-27T22:23:43.637Z,4.30
2019-03-27T22:28:44.977Z,4.60
2019-03-27T22:33:46.308Z,4.43
2019-03-27T22:38:47.746Z,4.30
2019-03-27T22:43:49.119Z,4.53
2019-03-27T22:48:50.465Z,4.27
2019-03-27T22:53:51.841Z,5.30
2019-03-27T22:58:53.165Z,5.07
2019-03-27T23:03:54.612Z,4.77
2019-03-27T23:08:56.487Z,4.83
2019-03-27T23:13:57.889Z,5.30
2019-03-27T23:18:59.380Z,5.20
2019-03-27T23:24:00.739Z,5.40
2019-03-27T23:29:02.222Z,5.10
2019-03-27T23:34:03.653Z,4.90
2019-03-27T23:39:06.554Z,6.00
2019-03-27T23:44:07.922Z,5.73
2019-03-27T23:49:09.304Z,5.60
2019-03-27T23:54:10.649Z,5.07
2019-03-27T23:59:11.981Z,6.00
